createdAt,value
2022-12-19T00:00:28.240Z,101125.06
2022-12-19T00:02:56.443Z,101119.94
2022-12-19T00:05:24.666Z,101125.88
2022-12-19T00:07:53.579Z,101124.50
2022-12-19T00:10:21.366Z,101134.19
2022-12-19T00:12:50.372Z,101136.72
2022-12-19T00:15:18.262Z,101125.63
2022-12-19T00:17:45.902Z,101117.66
2022-12-19T00:20:13.641Z,101118.22
2022-12-19T00:22:45.377Z,101116.81
2022-12-19T00:25:13.076Z,101120.72
2022-12-19T00:27:42.156Z,101114.44
2022-12-19T00:30:12.769Z,101109.66
2022-12-19T00:32:40.468Z,101106.28
2022-12-19T00:35:08.627Z,101099.13
2022-12-19T00:37:36.505Z,101104.22
2022-12-19T00:40:08.393Z,101101.75
2022-12-19T00:42:36.165Z,101104.00
2022-12-19T00:45:03.909Z,101100.06
2022-12-19T00:47:32.838Z,101108.22
2022-12-19T00:50:00.506Z,101105.94
2022-12-19T00:52:28.116Z,101106.22
2022-12-19T00:54:57.580Z,101101.03
2022-12-19T00:57:25.228Z,101108.03
2022-12-19T00:59:52.814Z,101107.81
2022-12-19T01:02:20.562Z,101110.53
2022-12-19T01:04:49.606Z,101113.59
2022-12-19T01:07:17.238Z,101108.28
2022-12-19T01:09:44.882Z,101103.72
2022-12-19T01:12:30.925Z,101104.78
2022-12-19T01:15:04.481Z,101110.69
2022-12-19T01:17:36.526Z,101098.19
2022-12-19T01:20:14.081Z,101113.16
2022-12-19T01:22:41.634Z,101106.63
2022-12-19T01:25:09.763Z,101100.25
2022-12-19T01:27:37.524Z,101103.25
2022-12-19T01:30:07.294Z,101117.84
2022-12-19T01:32:35.937Z,101113.78
2022-12-19T01:35:03.584Z,101108.25
2022-12-19T01:37:33.114Z,101106.91
2022-12-19T01:40:00.711Z,101102.88
2022-12-19T01:42:36.175Z,101087.84
2022-12-19T01:45:17.425Z,101088.03
2022-12-19T01:47:48.678Z,101081.47
2022-12-19T01:50:27.462Z,101073.56
2022-12-19T01:52:58.208Z,101070.66
2022-12-19T01:55:26.576Z,101069.91
2022-12-19T01:57:55.262Z,101071.34
2022-12-19T02:00:22.982Z,101079.50
2022-12-19T02:02:57.166Z,101079.94
2022-12-19T02:05:25.116Z,101072.44
2022-12-19T02:07:53.257Z,101061.72
2022-12-19T02:10:22.283Z,101047.28
2022-12-19T02:12:50.457Z,101058.53
2022-12-19T02:15:19.396Z,101058.63
2022-12-19T02:18:08.079Z,101055.44
2022-12-19T02:20:57.581Z,101063.03
2022-12-19T02:23:47.973Z,101063.13
2022-12-19T02:26:37.722Z,101052.50
2022-12-19T02:29:24.147Z,101057.84
2022-12-19T02:31:58.175Z,101044.28
2022-12-19T02:34:32.492Z,101042.56
2022-12-19T02:37:04.975Z,101036.38
2022-12-19T02:39:38.722Z,101039.94
2022-12-19T02:42:10.755Z,101046.13
2022-12-19T02:44:43.989Z,101017.69
2022-12-19T02:47:14.599Z,101012.16
2022-12-19T02:49:42.480Z,101027.81
2022-12-19T02:52:11.456Z,101041.31
2022-12-19T02:54:44.860Z,101049.06
2022-12-19T02:57:20.606Z,101045.00
2022-12-19T02:59:58.076Z,101039.78
2022-12-19T03:02:36.951Z,101031.91
2022-12-19T03:05:14.417Z,101010.78
2022-12-19T03:07:50.169Z,100995.78
2022-12-19T03:10:24.708Z,101004.53
2022-12-19T03:13:01.788Z,101014.78
2022-12-19T03:15:30.204Z,101010.09
2022-12-19T03:18:01.156Z,101015.69
2022-12-19T03:20:40.727Z,101018.09
2022-12-19T03:23:08.436Z,101023.56
2022-12-19T03:25:36.816Z,101023.53
2022-12-19T03:28:12.199Z,101018.94
2022-12-19T03:30:42.090Z,101014.72
2022-12-19T03:33:13.973Z,101022.84
2022-12-19T03:35:44.316Z,101008.19
2022-12-19T03:38:14.084Z,101013.31
2022-12-19T03:40:44.983Z,101010.84
2022-12-19T03:43:14.608Z,101012.31
2022-12-19T03:45:49.095Z,101013.00
2022-12-19T03:48:26.179Z,101005.31
2022-12-19T03:51:04.293Z,101009.41
2022-12-19T03:53:42.501Z,101006.75
2022-12-19T03:56:16.410Z,101012.41
2022-12-19T03:58:49.145Z,101019.53
2022-12-19T04:01:17.472Z,101002.28
2022-12-19T04:03:46.676Z,101011.16
2022-12-19T04:06:15.929Z,101003.59
2022-12-19T04:08:44.451Z,101010.69
2022-12-19T04:11:16.512Z,101004.09
2022-12-19T04:13:50.094Z,101015.06
2022-12-19T04:16:21.379Z,100999.22
2022-12-19T04:18:56.788Z,101006.13
2022-12-19T04:21:28.817Z,100997.41
2022-12-19T04:24:03.833Z,101000.44
2022-12-19T04:26:33.833Z,100987.59
2022-12-19T04:29:05.420Z,100992.81
2022-12-19T04:31:33.284Z,101004.84
2022-12-19T04:34:02.393Z,100994.50
2022-12-19T04:36:30.506Z,100995.66
2022-12-19T04:38:58.703Z,100992.94
2022-12-19T04:41:26.576Z,100989.56
2022-12-19T04:43:54.181Z,100972.03
2022-12-19T04:46:21.805Z,100980.03
2022-12-19T04:48:49.513Z,100983.63
2022-12-19T04:51:18.458Z,100981.97
2022-12-19T04:53:46.061Z,100975.50
2022-12-19T04:56:13.894Z,100971.50
2022-12-19T04:58:41.550Z,100974.25
2022-12-19T05:01:10.079Z,100979.97
2022-12-19T05:03:39.044Z,100984.19
2022-12-19T05:06:08.614Z,100974.25
2022-12-19T05:08:38.988Z,100982.59
2022-12-19T05:11:08.059Z,100973.84
2022-12-19T05:13:36.249Z,100969.94
2022-12-19T05:16:05.969Z,100980.16
2022-12-19T05:18:34.274Z,100977.63
2022-12-19T05:21:02.204Z,100978.44
2022-12-19T05:23:29.941Z,100970.41
2022-12-19T05:26:00.297Z,100983.31
2022-12-19T05:28:28.138Z,100984.25
2022-12-19T05:31:03.545Z,100981.31
2022-12-19T05:33:31.152Z,100964.88
2022-12-19T05:35:58.897Z,100963.50
2022-12-19T05:38:27.161Z,100973.09
2022-12-19T05:40:54.977Z,100979.00
2022-12-19T05:43:24.491Z,100984.59
2022-12-19T05:45:52.139Z,100987.88
2022-12-19T05:48:19.761Z,100973.38
2022-12-19T05:50:51.252Z,100971.72
2022-12-19T05:53:23.326Z,100975.00
2022-12-19T05:55:53.742Z,100970.56
2022-12-19T05:58:21.627Z,100972.06
2022-12-19T06:00:50.579Z,100967.72
2022-12-19T06:03:18.298Z,100966.44
2022-12-19T06:05:46.376Z,100975.44
2022-12-19T06:08:13.930Z,100962.41
2022-12-19T06:10:41.505Z,100963.91
2022-12-19T06:13:09.207Z,100969.91
2022-12-19T06:15:36.776Z,100966.09
2022-12-19T06:18:05.816Z,100973.88
2022-12-19T06:20:33.423Z,100965.00
2022-12-19T06:23:00.973Z,100977.69
2022-12-19T06:25:28.567Z,100982.75
2022-12-19T06:27:56.266Z,100976.03
2022-12-19T06:30:23.854Z,100976.84
2022-12-19T06:32:52.420Z,100982.16
2022-12-19T06:35:21.505Z,100979.97
2022-12-19T06:37:49.814Z,100969.97
2022-12-19T06:40:37.855Z,100970.50
2022-12-19T06:43:04.513Z,100983.19
2022-12-19T06:45:32.384Z,100975.28
2022-12-19T06:48:00.119Z,100981.25
2022-12-19T06:50:29.060Z,100976.09
2022-12-19T06:52:56.923Z,100974.16
2022-12-19T06:55:24.875Z,100974.47
2022-12-19T06:57:52.491Z,100965.38
2022-12-19T07:00:21.735Z,100958.09
2022-12-19T07:02:52.854Z,100962.66
2022-12-19T07:05:20.877Z,100959.41
2022-12-19T07:07:51.277Z,100967.16
2022-12-19T07:10:19.124Z,100971.50
2022-12-19T07:12:46.885Z,100955.97
2022-12-19T07:15:14.771Z,100956.06
2022-12-19T07:17:42.939Z,100945.59
2022-12-19T07:20:20.193Z,100958.41
2022-12-19T07:22:51.376Z,100941.22
2022-12-19T07:25:19.078Z,100954.44
2022-12-19T07:27:47.703Z,100966.94
2022-12-19T07:30:15.397Z,100972.25
2022-12-19T07:32:43.332Z,100961.69
2022-12-19T07:35:11.142Z,100956.34
2022-12-19T07:37:38.836Z,100964.03
2022-12-19T07:40:08.995Z,100964.06
2022-12-19T07:42:37.189Z,100968.53
2022-12-19T07:45:06.498Z,100971.31
2022-12-19T07:47:34.595Z,100970.16
2022-12-19T07:50:02.579Z,100968.84
2022-12-19T07:52:30.240Z,100968.22
2022-12-19T07:54:57.939Z,100976.50
2022-12-19T07:57:27.130Z,100969.59
2022-12-19T07:59:54.969Z,100969.47
2022-12-19T08:02:22.853Z,100967.75
2022-12-19T08:04:52.093Z,100963.34
2022-12-19T08:07:20.057Z,100962.50
2022-12-19T08:09:48.183Z,100959.44
2022-12-19T08:12:16.857Z,100959.13
2022-12-19T08:14:45.833Z,100953.41
2022-12-19T08:17:21.514Z,100962.16
2022-12-19T08:19:49.467Z,100961.81
2022-12-19T08:22:17.151Z,100959.00
2022-12-19T08:24:44.898Z,100957.91
2022-12-19T08:27:12.635Z,100964.97
2022-12-19T08:29:40.340Z,100966.91
2022-12-19T08:32:18.640Z,100964.72
2022-12-19T08:34:48.316Z,100962.91
2022-12-19T08:37:15.945Z,100969.91
2022-12-19T08:39:43.487Z,100952.03
2022-12-19T08:42:11.096Z,100959.22
2022-12-19T08:44:38.620Z,100961.63
2022-12-19T08:47:06.360Z,100963.91
2022-12-19T08:49:35.697Z,100969.59
2022-12-19T08:52:03.317Z,100962.72
2022-12-19T08:54:30.973Z,100954.41
2022-12-19T08:56:59.165Z,100939.75
2022-12-19T08:59:31.762Z,100938.28
2022-12-19T09:02:02.122Z,100940.34
2022-12-19T09:05:58.507Z,100942.00
2022-12-19T09:07:19.697Z,100950.28
2022-12-19T09:09:50.310Z,100954.16
2022-12-19T09:12:17.940Z,100949.31
2022-12-19T09:14:45.569Z,100958.41
2022-12-19T09:17:13.306Z,100951.22
2022-12-19T09:19:43.016Z,100959.81
2022-12-19T09:22:15.342Z,100954.41
2022-12-19T09:24:44.447Z,100960.41
2022-12-19T09:27:12.089Z,100949.47
2022-12-19T09:29:40.490Z,100961.97
2022-12-19T09:32:08.258Z,100963.66
2022-12-19T09:34:38.310Z,100944.13
2022-12-19T09:37:08.121Z,100949.59
2022-12-19T09:39:36.735Z,100945.25
2022-12-19T09:42:19.783Z,100947.44
2022-12-19T09:45:01.988Z,100945.94
2022-12-19T09:47:31.724Z,100948.03
2022-12-19T09:50:03.389Z,100952.94
2022-12-19T09:52:36.917Z,100948.75
2022-12-19T09:55:16.753Z,100957.41
2022-12-19T09:57:53.116Z,100948.00
2022-12-19T10:00:23.206Z,100947.69
2022-12-19T10:02:57.593Z,100945.88
2022-12-19T10:06:01.813Z,100949.25
2022-12-19T10:08:21.694Z,100937.31
2022-12-19T10:12:38.877Z,100937.50
2022-12-19T10:14:07.567Z,100930.19
2022-12-19T10:17:01.767Z,100934.44
2022-12-19T10:19:44.248Z,100930.94
2022-12-19T10:22:24.795Z,100929.50
2022-12-19T10:25:16.904Z,100922.38
2022-12-19T10:27:57.782Z,100922.13
2022-12-19T10:30:34.133Z,100920.56
2022-12-19T10:33:19.862Z,100914.91
2022-12-19T10:35:52.715Z,100914.72
2022-12-19T10:38:28.017Z,100897.88
2022-12-19T10:41:11.496Z,100905.69
2022-12-19T10:43:48.134Z,100906.28
2022-12-19T10:46:24.453Z,100906.28
2022-12-19T10:48:52.564Z,100900.16
2022-12-19T10:51:24.546Z,100908.06
2022-12-19T10:53:57.022Z,100912.84
2022-12-19T10:56:29.271Z,100912.06
2022-12-19T10:59:01.342Z,100900.63
2022-12-19T11:01:36.449Z,100907.44
2022-12-19T11:04:27.052Z,100895.91
2022-12-19T11:07:07.488Z,100887.78
2022-12-19T11:09:38.606Z,100881.25
2022-12-19T11:14:40.664Z,100866.59
2022-12-19T11:19:15.737Z,100856.66
2022-12-19T11:25:24.863Z,100858.56
2022-12-19T11:29:33.807Z,100853.66
2022-12-19T11:29:44.753Z,100863.69
2022-12-19T11:30:34.368Z,100851.97
2022-12-19T11:32:40.977Z,100852.88
2022-12-19T11:35:19.938Z,100856.53
2022-12-19T11:37:55.770Z,100853.53
2022-12-19T11:40:33.660Z,100855.81
2022-12-19T11:46:01.288Z,100846.50
2022-12-19T11:48:38.301Z,100838.75
2022-12-19T11:51:18.557Z,100839.63
2022-12-19T11:53:53.973Z,100834.28
2022-12-19T11:56:25.356Z,100834.63
2022-12-19T11:58:58.925Z,100833.53
2022-12-19T12:01:42.581Z,100833.66
2022-12-19T12:04:37.083Z,100827.13
2022-12-19T12:07:28.126Z,100826.81
2022-12-19T12:14:01.903Z,100817.63
2022-12-19T12:18:21.278Z,100813.66
2022-12-19T12:27:50.004Z,100813.28
2022-12-19T12:31:13.428Z,100814.94
2022-12-19T12:31:15.791Z,100813.19
2022-12-19T12:31:38.742Z,100807.09
2022-12-19T12:31:49.080Z,100809.75
2022-12-19T12:31:53.450Z,100800.88
2022-12-19T12:35:17.433Z,100801.47
2022-12-19T12:39:52.378Z,100780.50
2022-12-19T12:42:37.981Z,100777.88
2022-12-19T12:45:18.624Z,100775.16
2022-12-19T12:47:49.027Z,100778.84
2022-12-19T12:50:19.052Z,100780.97
2022-12-19T12:52:49.199Z,100780.41
2022-12-19T12:55:21.299Z,100778.38
2022-12-19T12:57:50.284Z,100787.97
2022-12-19T13:00:24.458Z,100791.03
2022-12-19T13:02:57.529Z,100793.84
2022-12-19T13:05:39.230Z,100788.94
2022-12-19T13:08:36.504Z,100780.59
2022-12-19T13:11:06.407Z,100778.78
2022-12-19T13:13:57.970Z,100783.97
2022-12-19T13:16:52.756Z,100771.66
2022-12-19T13:19:27.801Z,100778.22
2022-12-19T13:22:21.235Z,100785.38
2022-12-19T13:24:51.267Z,100780.25
2022-12-19T13:27:40.446Z,100764.81
2022-12-19T13:30:20.625Z,100774.06
2022-12-19T13:33:12.246Z,100768.38
2022-12-19T13:36:52.623Z,100764.22
2022-12-19T13:39:57.477Z,100767.28
2022-12-19T13:41:49.648Z,100762.84
2022-12-19T13:44:20.591Z,100764.91
2022-12-19T13:46:50.543Z,100761.97
2022-12-19T13:49:25.142Z,100760.88
2022-12-19T13:51:57.378Z,100771.88
2022-12-19T13:54:32.817Z,100763.91
2022-12-19T13:57:09.001Z,100755.00
2022-12-19T13:59:54.389Z,100756.41
2022-12-19T14:02:34.890Z,100755.88
2022-12-19T14:05:31.892Z,100760.44
2022-12-19T14:08:15.651Z,100750.63
2022-12-19T14:11:29.486Z,100758.00
2022-12-19T14:14:03.019Z,100751.59
2022-12-19T14:16:43.517Z,100743.66
2022-12-19T14:19:21.589Z,100736.53
2022-12-19T14:22:09.607Z,100745.63
2022-12-19T14:24:37.201Z,100756.81
2022-12-19T14:28:19.826Z,100758.09
2022-12-19T14:30:27.973Z,100758.03
2022-12-19T14:33:44.991Z,100754.41
2022-12-19T14:36:26.277Z,100752.50
2022-12-19T14:39:27.906Z,100746.06
2022-12-19T14:42:04.422Z,100745.72
2022-12-19T14:52:35.991Z,100745.34
2022-12-19T14:54:01.162Z,100748.41
2022-12-19T14:54:22.082Z,100753.38
2022-12-19T14:54:32.371Z,100747.13
2022-12-19T14:59:02.205Z,100747.06
2022-12-19T15:01:33.620Z,100752.53
2022-12-19T15:04:52.361Z,100746.50
2022-12-19T15:07:08.388Z,100737.31
2022-12-19T15:10:58.319Z,100743.16
2022-12-19T15:14:55.374Z,100732.84
2022-12-19T15:15:59.819Z,100736.44
2022-12-19T15:18:29.705Z,100736.09
2022-12-19T15:20:59.040Z,100737.50
2022-12-19T15:23:27.177Z,100738.81
2022-12-19T15:26:07.070Z,100733.78
2022-12-19T15:28:41.102Z,100720.75
2022-12-19T15:31:23.274Z,100719.59
2022-12-19T15:34:23.758Z,100711.59
2022-12-19T15:36:38.758Z,100706.84
2022-12-19T15:39:06.597Z,100706.63
2022-12-19T15:41:35.992Z,100716.44
2022-12-19T15:44:09.658Z,100718.88
2022-12-19T15:46:41.349Z,100716.81
2022-12-19T15:49:16.571Z,100708.31
2022-12-19T15:51:45.787Z,100718.75
2022-12-19T15:57:22.659Z,100716.56
2022-12-19T15:59:52.998Z,100712.88
2022-12-19T16:02:24.675Z,100708.75
2022-12-19T16:04:58.328Z,100708.88
2022-12-19T16:07:30.383Z,100697.97
2022-12-19T16:09:58.115Z,100700.88
2022-12-19T16:12:33.823Z,100696.94
2022-12-19T16:15:03.208Z,100690.09
2022-12-19T16:17:34.000Z,100684.28
2022-12-19T16:20:02.648Z,100696.16
2022-12-19T16:22:30.559Z,100693.06
2022-12-19T16:24:58.183Z,100689.50
2022-12-19T16:27:29.539Z,100692.16
2022-12-19T16:30:01.828Z,100681.69
2022-12-19T16:32:29.471Z,100677.50
2022-12-19T16:34:57.356Z,100672.97
2022-12-19T16:37:31.810Z,100663.50
2022-12-19T16:40:00.631Z,100672.28
2022-12-19T16:42:30.701Z,100674.31
2022-12-19T16:44:58.325Z,100683.72
2022-12-19T16:47:26.236Z,100675.44
2022-12-19T16:49:53.859Z,100679.81
2022-12-19T16:52:21.442Z,100676.53
2022-12-19T16:54:50.049Z,100676.41
2022-12-19T16:57:20.685Z,100669.75
2022-12-19T16:59:50.907Z,100680.66
2022-12-19T17:02:44.163Z,100689.63
2022-12-19T17:05:17.380Z,100695.00
2022-12-19T17:07:45.014Z,100684.63
2022-12-19T17:10:13.029Z,100694.44
2022-12-19T17:12:41.469Z,100689.06
2022-12-19T17:15:22.470Z,100683.00
2022-12-19T17:17:50.845Z,100706.56
2022-12-19T17:20:20.846Z,100696.41
2022-12-19T17:22:49.113Z,100708.75
2022-12-19T17:25:23.231Z,100722.31
2022-12-19T17:27:52.043Z,100713.34
2022-12-19T17:30:22.221Z,100704.75
2022-12-19T17:32:53.767Z,100718.69
2022-12-19T17:35:28.101Z,100713.72
2022-12-19T17:37:57.534Z,100703.56
2022-12-19T17:40:26.820Z,100694.44
2022-12-19T17:42:56.559Z,100685.81
2022-12-19T17:45:27.013Z,100695.13
2022-12-19T17:48:02.022Z,100684.41
2022-12-19T17:50:31.876Z,100678.78
2022-12-19T17:52:59.505Z,100686.91
2022-12-19T17:55:29.416Z,100685.69
2022-12-19T17:57:57.976Z,100683.09
2022-12-19T18:00:30.934Z,100687.31
2022-12-19T18:03:02.350Z,100679.47
2022-12-19T18:05:33.341Z,100690.34
2022-12-19T18:08:01.124Z,100681.00
2022-12-19T18:10:31.183Z,100671.03
2022-12-19T18:12:59.472Z,100667.47
2022-12-19T18:15:29.433Z,100655.97
2022-12-19T18:17:58.464Z,100655.34
2022-12-19T18:20:31.943Z,100658.38
2022-12-19T18:23:01.197Z,100653.97
2022-12-19T18:25:31.841Z,100648.78
2022-12-19T18:27:59.615Z,100642.91
2022-12-19T18:30:28.573Z,100641.44
2022-12-19T18:32:59.034Z,100635.34
2022-12-19T18:35:35.704Z,100630.81
2022-12-19T18:38:06.534Z,100639.47
2022-12-19T18:40:34.689Z,100645.94
2022-12-19T18:43:02.515Z,100659.03
2022-12-19T18:45:36.349Z,100656.13
2022-12-19T18:48:07.951Z,100666.06
2022-12-19T18:50:35.884Z,100649.78
2022-12-19T18:53:03.535Z,100651.19
2022-12-19T18:55:32.397Z,100649.28
2022-12-19T18:58:00.299Z,100655.38
2022-12-19T19:00:29.265Z,100667.75
2022-12-19T19:03:01.008Z,100672.97
2022-12-19T19:05:32.202Z,100674.28
2022-12-19T19:08:06.747Z,100677.41
2022-12-19T19:10:34.868Z,100671.88
2022-12-19T19:13:08.236Z,100684.34
2022-12-19T19:15:41.956Z,100670.72
2022-12-19T19:18:10.877Z,100670.97
2022-12-19T19:20:41.345Z,100653.34
2022-12-19T19:23:12.089Z,100657.44
2022-12-19T19:25:39.973Z,100667.69
2022-12-19T19:28:08.196Z,100664.63
2022-12-19T19:30:38.303Z,100674.16
2022-12-19T19:33:10.257Z,100672.41
2022-12-19T19:35:39.800Z,100670.69
2022-12-19T19:38:08.964Z,100668.81
2022-12-19T19:40:37.639Z,100678.31
2022-12-19T19:43:06.899Z,100685.59
2022-12-19T19:45:39.650Z,100674.59
2022-12-19T19:48:11.233Z,100676.28
2022-12-19T19:50:40.117Z,100682.97
2022-12-19T19:53:07.715Z,100671.78
2022-12-19T19:55:35.504Z,100666.69
2022-12-19T19:58:03.428Z,100664.38
2022-12-19T20:00:31.079Z,100663.16
2022-12-19T20:03:02.022Z,100667.06
2022-12-19T20:05:32.874Z,100676.25
2022-12-19T20:08:02.414Z,100684.75
2022-12-19T20:10:30.153Z,100682.84
2022-12-19T20:12:57.817Z,100686.50
2022-12-19T20:15:25.579Z,100682.31
2022-12-19T20:17:53.568Z,100685.25
2022-12-19T20:20:21.247Z,100680.34
2022-12-19T20:22:49.920Z,100680.50
2022-12-19T20:25:19.128Z,100675.22
2022-12-19T20:27:46.748Z,100675.75
2022-12-19T20:30:15.055Z,100684.59
2022-12-19T20:32:42.689Z,100687.25
2022-12-19T20:35:14.835Z,100684.28
2022-12-19T20:37:43.014Z,100691.78
2022-12-19T20:40:11.652Z,100703.06
2022-12-19T20:42:40.733Z,100710.28
2022-12-19T20:45:09.278Z,100702.13
2022-12-19T20:47:36.939Z,100697.56
2022-12-19T20:50:05.203Z,100703.44
2022-12-19T20:52:32.846Z,100692.97
2022-12-19T20:55:00.541Z,100690.97
2022-12-19T20:57:31.982Z,100682.19
2022-12-19T21:00:02.328Z,100693.03
2022-12-19T21:02:46.235Z,100698.63
2022-12-19T21:05:19.543Z,100690.88
2022-12-19T21:07:47.409Z,100690.44
2022-12-19T21:10:15.077Z,100699.03
2022-12-19T21:12:47.568Z,100696.38
2022-12-19T21:15:17.733Z,100693.84
2022-12-19T21:17:46.613Z,100695.28
2022-12-19T21:20:15.292Z,100698.09
2022-12-19T21:22:42.884Z,100699.00
2022-12-19T21:25:10.572Z,100690.00
2022-12-19T21:27:38.168Z,100695.56
2022-12-19T21:30:06.402Z,100694.28
2022-12-19T21:32:35.903Z,100702.81
2022-12-19T21:35:03.549Z,100707.66
2022-12-19T21:37:31.298Z,100704.41
2022-12-19T21:39:59.024Z,100689.56
2022-12-19T21:42:26.621Z,100696.03
2022-12-19T21:44:54.208Z,100685.44
2022-12-19T21:47:22.145Z,100681.69
2022-12-19T21:49:51.042Z,100682.19
2022-12-19T21:52:18.641Z,100685.09
2022-12-19T21:54:46.292Z,100693.00
2022-12-19T21:57:13.910Z,100684.41
2022-12-19T21:59:41.523Z,100687.66
2022-12-19T22:02:11.101Z,100687.69
2022-12-19T22:04:38.785Z,100687.19
2022-12-19T22:07:07.958Z,100674.59
2022-12-19T22:09:35.649Z,100672.59
2022-12-19T22:12:03.301Z,100667.22
2022-12-19T22:14:30.870Z,100675.50
2022-12-19T22:17:00.117Z,100667.34
2022-12-19T22:19:27.770Z,100665.81
2022-12-19T22:21:55.395Z,100663.38
2022-12-19T22:24:24.766Z,100664.91
2022-12-19T22:26:52.450Z,100663.69
2022-12-19T22:29:20.141Z,100663.63
2022-12-19T22:31:49.672Z,100657.81
2022-12-19T22:34:19.665Z,100670.38
2022-12-19T22:36:48.683Z,100667.97
2022-12-19T22:39:18.883Z,100661.88
2022-12-19T22:41:48.344Z,100660.06
2022-12-19T22:44:18.064Z,100654.66
2022-12-19T22:46:46.322Z,100646.78
2022-12-19T22:49:14.780Z,100653.66
2022-12-19T22:51:42.510Z,100651.56
2022-12-19T22:54:11.865Z,100644.56
2022-12-19T22:56:40.418Z,100645.91
2022-12-19T22:59:11.102Z,100648.44
2022-12-19T23:01:40.744Z,100653.13
2022-12-19T23:04:09.997Z,100637.75
2022-12-19T23:06:38.232Z,100640.13
2022-12-19T23:09:06.933Z,100633.31
2022-12-19T23:11:36.769Z,100629.28
2022-12-19T23:14:06.776Z,100634.97
2022-12-19T23:16:36.353Z,100631.34
2022-12-19T23:19:05.382Z,100633.41
2022-12-19T23:21:33.225Z,100629.22
2022-12-19T23:24:00.811Z,100631.50
2022-12-19T23:26:30.214Z,100630.16
2022-12-19T23:29:00.822Z,100619.41
2022-12-19T23:31:29.325Z,100620.94
2022-12-19T23:33:59.637Z,100624.72
2022-12-19T23:37:00.990Z,100632.41
2022-12-19T23:39:15.543Z,100638.41
2022-12-19T23:41:43.336Z,100639.22
2022-12-19T23:44:11.633Z,100634.75
2022-12-19T23:46:39.964Z,100624.72
2022-12-19T23:49:08.973Z,100622.19
2022-12-19T23:51:36.630Z,100629.53
2022-12-19T23:54:04.354Z,100629.88
2022-12-19T23:56:33.176Z,100622.13
2022-12-19T23:59:01.503Z,100613.53
